sensor_id;sensor_type;location;lat;lon;timestamp;pressure;altitude;pressure_sealevel;temperature;humidity
47897;BME280;39629;51.400;5.494;2024-03-29T00:04:39;99009.59;;;9.11;63.64
47897;BME280;39629;51.400;5.494;2024-03-29T00:09:40;99012.22;;;8.92;64.79
47897;BME280;39629;51.400;5.494;2024-03-29T00:14:41;99012.31;;;8.95;64.29
47897;BME280;39629;51.400;5.494;2024-03-29T00:19:43;99024.41;;;8.89;65.06
47897;BME280;39629;51.400;5.494;2024-03-29T00:24:44;99041.84;;;8.83;65.10
47897;BME280;39629;51.400;5.494;2024-03-29T00:29:44;99052.91;;;8.66;65.17
47897;BME280;39629;51.400;5.494;2024-03-29T00:34:48;99049.03;;;8.63;65.81
47897;BME280;39629;51.400;5.494;2024-03-29T00:39:50;99051.09;;;8.70;65.92
47897;BME280;39629;51.400;5.494;2024-03-29T00:44:50;99057.81;;;8.48;66.74
47897;BME280;39629;51.400;5.494;2024-03-29T00:49:53;99061.44;;;8.56;65.85
47897;BME280;39629;51.400;5.494;2024-03-29T00:54:54;99050.22;;;8.34;67.20
47897;BME280;39629;51.400;5.494;2024-03-29T00:59:55;99063.59;;;8.34;67.68
47897;BME280;39629;51.400;5.494;2024-03-29T01:04:57;99056.56;;;8.14;68.81
47897;BME280;39629;51.400;5.494;2024-03-29T01:09:58;99052.66;;;8.39;67.76
47897;BME280;39629;51.400;5.494;2024-03-29T01:14:59;99061.16;;;8.29;68.75
47897;BME280;39629;51.400;5.494;2024-03-29T01:20:01;99040.22;;;8.31;67.90
47897;BME280;39629;51.400;5.494;2024-03-29T01:25:02;99042.34;;;8.26;69.13
47897;BME280;39629;51.400;5.494;2024-03-29T01:30:04;99038.03;;;8.21;69.41
47897;BME280;39629;51.400;5.494;2024-03-29T01:35:07;99025.56;;;8.41;68.38
47897;BME280;39629;51.400;5.494;2024-03-29T01:40:08;99017.34;;;8.34;68.22
47897;BME280;39629;51.400;5.494;2024-03-29T01:45:09;98990.00;;;8.40;68.72
47897;BME280;39629;51.400;5.494;2024-03-29T01:50:13;99001.47;;;8.41;68.64
47897;BME280;39629;51.400;5.494;2024-03-29T01:55:15;99003.34;;;8.56;67.75
47897;BME280;39629;51.400;5.494;2024-03-29T02:00:18;98984.19;;;8.54;68.29
47897;BME280;39629;51.400;5.494;2024-03-29T02:05:22;98997.75;;;8.61;68.34
47897;BME280;39629;51.400;5.494;2024-03-29T02:10:24;99005.16;;;8.68;68.49
47897;BME280;39629;51.400;5.494;2024-03-29T02:15:27;99004.66;;;8.62;69.27
47897;BME280;39629;51.400;5.494;2024-03-29T02:20:31;99010.75;;;8.78;68.57
47897;BME280;39629;51.400;5.494;2024-03-29T02:25:36;99023.78;;;8.80;68.09
47897;BME280;39629;51.400;5.494;2024-03-29T02:30:38;99041.44;;;9.16;66.13
47897;BME280;39629;51.400;5.494;2024-03-29T02:35:40;99014.34;;;9.37;65.74
47897;BME280;39629;51.400;5.494;2024-03-29T02:40:43;99028.88;;;9.55;63.74
47897;BME280;39629;51.400;5.494;2024-03-29T02:45:45;99040.16;;;9.45;65.67
47897;BME280;39629;51.400;5.494;2024-03-29T02:50:47;99038.13;;;9.58;64.44
47897;BME280;39629;51.400;5.494;2024-03-29T02:55:50;99037.69;;;9.56;65.33
47897;BME280;39629;51.400;5.494;2024-03-29T03:00:52;99050.69;;;9.54;66.77
47897;BME280;39629;51.400;5.494;2024-03-29T03:05:53;99049.53;;;9.35;69.32
47897;BME280;39629;51.400;5.494;2024-03-29T03:10:57;99046.72;;;9.48;68.04
47897;BME280;39629;51.400;5.494;2024-03-29T03:15:59;99045.72;;;9.36;69.59
47897;BME280;39629;51.400;5.494;2024-03-29T03:21:01;99060.25;;;9.35;68.78
47897;BME280;39629;51.400;5.494;2024-03-29T03:26:05;99057.56;;;9.35;68.64
47897;BME280;39629;51.400;5.494;2024-03-29T03:31:07;99048.13;;;9.41;68.43
47897;BME280;39629;51.400;5.494;2024-03-29T03:36:09;99037.69;;;9.36;68.53
47897;BME280;39629;51.400;5.494;2024-03-29T03:41:13;99049.59;;;9.20;71.69
47897;BME280;39629;51.400;5.494;2024-03-29T03:46:15;99038.94;;;9.23;72.40
47897;BME280;39629;51.400;5.494;2024-03-29T03:51:17;99050.28;;;9.01;75.12
47897;BME280;39629;51.400;5.494;2024-03-29T03:56:20;99067.84;;;8.67;79.08
47897;BME280;39629;51.400;5.494;2024-03-29T04:01:22;99068.78;;;8.43;82.92
47897;BME280;39629;51.400;5.494;2024-03-29T04:06:24;99082.38;;;8.22;86.27
47897;BME280;39629;51.400;5.494;2024-03-29T04:11:27;99086.47;;;8.04;88.64
47897;BME280;39629;51.400;5.494;2024-03-29T04:16:29;99108.94;;;7.87;90.87
47897;BME280;39629;51.400;5.494;2024-03-29T04:21:31;99092.69;;;7.80;91.63
47897;BME280;39629;51.400;5.494;2024-03-29T04:26:35;99076.03;;;7.71;92.89
47897;BME280;39629;51.400;5.494;2024-03-29T04:31:37;99079.28;;;7.64;93.91
47897;BME280;39629;51.400;5.494;2024-03-29T04:36:40;99098.44;;;7.54;94.65
47897;BME280;39629;51.400;5.494;2024-03-29T04:41:44;99076.88;;;7.47;95.14
47897;BME280;39629;51.400;5.494;2024-03-29T04:46:46;99069.31;;;7.49;95.35
47897;BME280;39629;51.400;5.494;2024-03-29T04:51:48;99068.19;;;7.38;95.09
47897;BME280;39629;51.400;5.494;2024-03-29T04:56:52;99075.75;;;7.36;94.87
47897;BME280;39629;51.400;5.494;2024-03-29T05:01:55;99072.97;;;7.32;95.90
47897;BME280;39629;51.400;5.494;2024-03-29T05:06:57;99053.84;;;7.30;96.58
47897;BME280;39629;51.400;5.494;2024-03-29T05:12:01;99054.97;;;7.29;96.42
47897;BME280;39629;51.400;5.494;2024-03-29T05:17:03;99052.63;;;7.28;96.66
47897;BME280;39629;51.400;5.494;2024-03-29T05:22:05;99053.06;;;7.30;97.04
47897;BME280;39629;51.400;5.494;2024-03-29T05:27:08;99053.75;;;7.27;97.16
47897;BME280;39629;51.400;5.494;2024-03-29T05:32:10;99049.53;;;7.26;97.63
47897;BME280;39629;51.400;5.494;2024-03-29T05:37:13;99033.50;;;7.26;97.36
47897;BME280;39629;51.400;5.494;2024-03-29T05:42:17;99045.09;;;7.17;97.60
47897;BME280;39629;51.400;5.494;2024-03-29T05:47:19;99057.66;;;7.17;98.61
47897;BME280;39629;51.400;5.494;2024-03-29T05:52:22;99072.22;;;7.19;98.38
47897;BME280;39629;51.400;5.494;2024-03-29T05:57:25;99080.13;;;7.16;98.53
47897;BME280;39629;51.400;5.494;2024-03-29T06:02:31;99079.13;;;7.20;98.97
47897;BME280;39629;51.400;5.494;2024-03-29T06:07:33;99093.59;;;7.19;98.37
47897;BME280;39629;51.400;5.494;2024-03-29T06:12:36;99102.03;;;7.21;98.27
47897;BME280;39629;51.400;5.494;2024-03-29T06:17:39;99086.03;;;7.21;98.43
47897;BME280;39629;51.400;5.494;2024-03-29T06:22:41;99079.44;;;7.31;98.05
47897;BME280;39629;51.400;5.494;2024-03-29T06:27:44;99082.66;;;7.37;98.60
47897;BME280;39629;51.400;5.494;2024-03-29T06:32:48;99085.00;;;7.38;98.33
47897;BME280;39629;51.400;5.494;2024-03-29T06:37:50;99094.56;;;7.39;98.04
47897;BME280;39629;51.400;5.494;2024-03-29T06:42:53;99092.47;;;7.45;98.34
47897;BME280;39629;51.400;5.494;2024-03-29T06:47:56;99071.84;;;7.58;97.62
47897;BME280;39629;51.400;5.494;2024-03-29T06:52:58;99062.59;;;7.55;97.79
47897;BME280;39629;51.400;5.494;2024-03-29T06:58:02;99085.63;;;7.60;97.79
47897;BME280;39629;51.400;5.494;2024-03-29T07:03:04;99072.13;;;7.68;98.70
47897;BME280;39629;51.400;5.494;2024-03-29T07:08:06;99072.00;;;7.77;97.05
47897;BME280;39629;51.400;5.494;2024-03-29T07:13:09;99077.81;;;7.95;97.34
47897;BME280;39629;51.400;5.494;2024-03-29T07:18:11;99090.44;;;8.10;96.89
47897;BME280;39629;51.400;5.494;2024-03-29T07:23:13;99087.25;;;8.32;96.64
47897;BME280;39629;51.400;5.494;2024-03-29T07:28:16;99105.41;;;8.70;94.25
47897;BME280;39629;51.400;5.494;2024-03-29T07:33:18;99120.72;;;9.17;93.36
47897;BME280;39629;51.400;5.494;2024-03-29T07:38:21;99100.91;;;9.22;91.20
47897;BME280;39629;51.400;5.494;2024-03-29T07:43:25;99116.56;;;9.04;90.32
47897;BME280;39629;51.400;5.494;2024-03-29T07:48:27;99116.97;;;9.06;90.89
47897;BME280;39629;51.400;5.494;2024-03-29T07:53:29;99097.38;;;9.18;90.16
47897;BME280;39629;51.400;5.494;2024-03-29T07:58:32;99098.38;;;9.29;90.71
47897;BME280;39629;51.400;5.494;2024-03-29T08:03:34;99090.44;;;9.32;90.30
47897;BME280;39629;51.400;5.494;2024-03-29T08:08:36;99089.94;;;9.27;91.20
47897;BME280;39629;51.400;5.494;2024-03-29T08:13:40;99098.81;;;9.31;90.37
47897;BME280;39629;51.400;5.494;2024-03-29T08:18:42;99087.63;;;9.44;90.94
47897;BME280;39629;51.400;5.494;2024-03-29T08:23:44;99100.13;;;9.56;90.26
47897;BME280;39629;51.400;5.494;2024-03-29T08:28:48;99120.25;;;9.66;90.17
47897;BME280;39629;51.400;5.494;2024-03-29T08:33:50;99125.31;;;9.71;89.13
47897;BME280;39629;51.400;5.494;2024-03-29T08:38:52;99125.25;;;9.87;89.85
47897;BME280;39629;51.400;5.494;2024-03-29T08:43:56;99112.00;;;9.94;90.33
47897;BME280;39629;51.400;5.494;2024-03-29T08:48:57;99132.31;;;9.95;89.55
47897;BME280;39629;51.400;5.494;2024-03-29T08:53:59;99138.97;;;10.20;90.10
47897;BME280;39629;51.400;5.494;2024-03-29T08:59:06;99135.28;;;10.28;88.36
47897;BME280;39629;51.400;5.494;2024-03-29T09:04:10;99142.41;;;10.40;86.72
47897;BME280;39629;51.400;5.494;2024-03-29T09:09:14;99144.03;;;10.67;87.92
47897;BME280;39629;51.400;5.494;2024-03-29T09:14:18;99152.97;;;10.52;86.59
47897;BME280;39629;51.400;5.494;2024-03-29T09:19:19;99159.25;;;10.79;86.77
47897;BME280;39629;51.400;5.494;2024-03-29T09:24:22;99147.00;;;11.05;86.97
47897;BME280;39629;51.400;5.494;2024-03-29T09:29:27;99151.25;;;11.06;85.24
47897;BME280;39629;51.400;5.494;2024-03-29T09:34:29;99172.50;;;11.67;82.92
47897;BME280;39629;51.400;5.494;2024-03-29T09:39:31;99182.22;;;12.32;81.54
47897;BME280;39629;51.400;5.494;2024-03-29T09:44:34;99194.22;;;13.15;79.61
47897;BME280;39629;51.400;5.494;2024-03-29T09:49:37;99199.28;;;12.80;78.09
47897;BME280;39629;51.400;5.494;2024-03-29T09:54:40;99197.81;;;12.86;76.09
47897;BME280;39629;51.400;5.494;2024-03-29T09:59:43;99214.59;;;13.13;75.60
47897;BME280;39629;51.400;5.494;2024-03-29T10:04:46;99220.59;;;13.40;76.76
47897;BME280;39629;51.400;5.494;2024-03-29T10:09:48;99196.78;;;13.01;73.37
47897;BME280;39629;51.400;5.494;2024-03-29T10:14:52;99189.16;;;13.58;73.24
47897;BME280;39629;51.400;5.494;2024-03-29T10:20:03;99187.09;;;13.96;72.69
47897;BME280;39629;51.400;5.494;2024-03-29T10:25:06;99189.63;;;13.67;70.90
47897;BME280;39629;51.400;5.494;2024-03-29T10:30:11;99188.22;;;13.36;69.98
47897;BME280;39629;51.400;5.494;2024-03-29T10:35:17;99202.66;;;13.58;70.52
47897;BME280;39629;51.400;5.494;2024-03-29T10:40:21;99194.84;;;13.46;70.09
47897;BME280;39629;51.400;5.494;2024-03-29T10:45:26;99211.25;;;13.74;69.31
47897;BME280;39629;51.400;5.494;2024-03-29T10:50:31;99212.47;;;13.36;69.54
47897;BME280;39629;51.400;5.494;2024-03-29T10:55:33;99233.38;;;14.01;69.02
47897;BME280;39629;51.400;5.494;2024-03-29T11:00:38;99239.88;;;13.89;70.00
47897;BME280;39629;51.400;5.494;2024-03-29T11:05:45;99243.94;;;14.31;68.73
47897;BME280;39629;51.400;5.494;2024-03-29T11:10:49;99230.22;;;14.68;64.89
47897;BME280;39629;51.400;5.494;2024-03-29T11:15:53;99194.31;;;14.68;63.51
47897;BME280;39629;51.400;5.494;2024-03-29T11:20:56;99214.09;;;15.11;62.74
47897;BME280;39629;51.400;5.494;2024-03-29T11:25:58;99217.50;;;14.90;62.74
47897;BME280;39629;51.400;5.494;2024-03-29T11:31:03;99223.25;;;14.71;62.85
47897;BME280;39629;51.400;5.494;2024-03-29T11:36:10;99239.44;;;14.53;63.00
47897;BME280;39629;51.400;5.494;2024-03-29T11:41:14;99231.47;;;15.06;62.37
47897;BME280;39629;51.400;5.494;2024-03-29T11:46:18;99232.59;;;15.91;59.62
47897;BME280;39629;51.400;5.494;2024-03-29T11:51:21;99248.09;;;15.76;59.17
47897;BME280;39629;51.400;5.494;2024-03-29T11:56:24;99248.06;;;15.94;56.65
47897;BME280;39629;51.400;5.494;2024-03-29T12:01:28;99244.09;;;16.37;59.04
47897;BME280;39629;51.400;5.494;2024-03-29T12:06:29;99260.03;;;16.07;54.94
47897;BME280;39629;51.400;5.494;2024-03-29T12:11:31;99269.00;;;15.51;55.90
47897;BME280;39629;51.400;5.494;2024-03-29T12:16:43;99257.41;;;15.57;58.13
47897;BME280;39629;51.400;5.494;2024-03-29T12:21:46;99262.22;;;16.55;55.93
47897;BME280;39629;51.400;5.494;2024-03-29T12:26:48;99258.31;;;16.63;55.76
47897;BME280;39629;51.400;5.494;2024-03-29T12:31:58;99261.47;;;17.27;53.63
47897;BME280;39629;51.400;5.494;2024-03-29T12:37:00;99266.75;;;16.79;54.22
47897;BME280;39629;51.400;5.494;2024-03-29T12:42:03;99256.59;;;16.97;53.27
47897;BME280;39629;51.400;5.494;2024-03-29T12:47:06;99258.56;;;17.52;54.48
47897;BME280;39629;51.400;5.494;2024-03-29T12:52:09;99250.81;;;18.33;51.52
47897;BME280;39629;51.400;5.494;2024-03-29T12:57:11;99259.69;;;18.68;51.67
47897;BME280;39629;51.400;5.494;2024-03-29T13:02:15;99269.28;;;17.66;52.83
47897;BME280;39629;51.400;5.494;2024-03-29T13:07:16;99257.31;;;17.60;52.06
47897;BME280;39629;51.400;5.494;2024-03-29T13:12:18;99254.03;;;17.35;52.96
47897;BME280;39629;51.400;5.494;2024-03-29T13:17:21;99278.19;;;17.19;54.15
47897;BME280;39629;51.400;5.494;2024-03-29T13:22:23;99278.16;;;17.26;52.63
47897;BME280;39629;51.400;5.494;2024-03-29T13:27:25;99279.06;;;17.57;51.84
47897;BME280;39629;51.400;5.494;2024-03-29T13:32:28;99266.63;;;17.04;53.29
47897;BME280;39629;51.400;5.494;2024-03-29T13:37:33;99265.63;;;16.73;53.51
47897;BME280;39629;51.400;5.494;2024-03-29T13:42:35;99274.31;;;16.36;54.35
47897;BME280;39629;51.400;5.494;2024-03-29T13:47:42;99283.13;;;16.61;53.44
47897;BME280;39629;51.400;5.494;2024-03-29T13:52:44;99284.34;;;16.46;55.13
47897;BME280;39629;51.400;5.494;2024-03-29T13:57:46;99268.94;;;16.25;55.19
47897;BME280;39629;51.400;5.494;2024-03-29T14:02:49;99265.41;;;16.35;54.71
47897;BME280;39629;51.400;5.494;2024-03-29T14:07:51;99273.47;;;16.50;54.35
47897;BME280;39629;51.400;5.494;2024-03-29T14:12:53;99290.38;;;16.79;53.02
47897;BME280;39629;51.400;5.494;2024-03-29T14:17:56;99301.66;;;16.70;52.34
47897;BME280;39629;51.400;5.494;2024-03-29T14:22:58;99293.69;;;16.27;55.35
47897;BME280;39629;51.400;5.494;2024-03-29T14:28:05;99290.22;;;16.23;54.07
47897;BME280;39629;51.400;5.494;2024-03-29T14:33:08;99291.75;;;16.06;53.92
47897;BME280;39629;51.400;5.494;2024-03-29T14:38:10;99299.13;;;15.95;54.27
47897;BME280;39629;51.400;5.494;2024-03-29T14:43:14;99302.59;;;15.99;55.58
47897;BME280;39629;51.400;5.494;2024-03-29T14:48:17;99303.03;;;16.12;53.83
47897;BME280;39629;51.400;5.494;2024-03-29T14:53:19;99295.22;;;16.07;52.68
47897;BME280;39629;51.400;5.494;2024-03-29T14:58:21;99308.78;;;16.03;54.87
47897;BME280;39629;51.400;5.494;2024-03-29T15:03:24;99309.19;;;16.09;56.02
47897;BME280;39629;51.400;5.494;2024-03-29T15:08:26;99303.38;;;16.03;55.80
47897;BME280;39629;51.400;5.494;2024-03-29T15:13:28;99284.47;;;15.54;54.96
47897;BME280;39629;51.400;5.494;2024-03-29T15:18:32;99277.06;;;15.90;56.14
47897;BME280;39629;51.400;5.494;2024-03-29T15:23:34;99277.44;;;16.06;54.08
47897;BME280;39629;51.400;5.494;2024-03-29T15:28:37;99280.16;;;15.99;54.87
47897;BME280;39629;51.400;5.494;2024-03-29T15:33:58;99304.16;;;16.18;55.93
47897;BME280;39629;51.400;5.494;2024-03-29T15:39:00;99310.69;;;16.38;55.31
47897;BME280;39629;51.400;5.494;2024-03-29T15:44:08;99323.13;;;16.25;54.02
47897;BME280;39629;51.400;5.494;2024-03-29T15:49:11;99320.78;;;15.95;53.36
47897;BME280;39629;51.400;5.494;2024-03-29T15:54:13;99342.44;;;15.92;54.07
47897;BME280;39629;51.400;5.494;2024-03-29T15:59:17;99364.09;;;15.60;54.81
47897;BME280;39629;51.400;5.494;2024-03-29T16:04:20;99337.03;;;15.45;55.21
47897;BME280;39629;51.400;5.494;2024-03-29T16:09:22;99353.63;;;15.33;54.09
47897;BME280;39629;51.400;5.494;2024-03-29T16:14:25;99351.72;;;15.44;54.45
47897;BME280;39629;51.400;5.494;2024-03-29T16:19:31;99352.84;;;15.29;54.19
47897;BME280;39629;51.400;5.494;2024-03-29T16:24:33;99358.63;;;15.28;54.91
47897;BME280;39629;51.400;5.494;2024-03-29T16:29:35;99354.03;;;15.35;56.38
47897;BME280;39629;51.400;5.494;2024-03-29T16:34:38;99343.53;;;15.20;55.34
47897;BME280;39629;51.400;5.494;2024-03-29T16:39:40;99344.66;;;15.11;55.57
47897;BME280;39629;51.400;5.494;2024-03-29T16:44:43;99351.22;;;15.03;55.98
47897;BME280;39629;51.400;5.494;2024-03-29T16:49:46;99349.97;;;14.87;57.48
47897;BME280;39629;51.400;5.494;2024-03-29T16:54:48;99346.47;;;14.79;59.69
47897;BME280;39629;51.400;5.494;2024-03-29T16:59:50;99344.50;;;14.76;58.40
47897;BME280;39629;51.400;5.494;2024-03-29T17:04:53;99341.34;;;14.56;58.19
47897;BME280;39629;51.400;5.494;2024-03-29T17:09:55;99336.69;;;14.49;57.86
47897;BME280;39629;51.400;5.494;2024-03-29T17:14:57;99342.34;;;14.34;59.81
47897;BME280;39629;51.400;5.494;2024-03-29T17:20:03;99336.88;;;14.23;60.09
47897;BME280;39629;51.400;5.494;2024-03-29T17:25:07;99337.63;;;14.20;60.08
47897;BME280;39629;51.400;5.494;2024-03-29T17:30:09;99337.16;;;14.07;62.05
47897;BME280;39629;51.400;5.494;2024-03-29T17:35:13;99332.44;;;13.94;62.43
47897;BME280;39629;51.400;5.494;2024-03-29T17:40:14;99349.00;;;13.88;63.02
47897;BME280;39629;51.400;5.494;2024-03-29T17:45:17;99348.66;;;13.94;60.81
47897;BME280;39629;51.400;5.494;2024-03-29T17:50:20;99352.00;;;13.80;61.53
47897;BME280;39629;51.400;5.494;2024-03-29T17:55:22;99358.09;;;13.70;62.04
47897;BME280;39629;51.400;5.494;2024-03-29T18:00:23;99365.31;;;13.62;63.17
47897;BME280;39629;51.400;5.494;2024-03-29T18:05:27;99372.94;;;13.53;63.42
47897;BME280;39629;51.400;5.494;2024-03-29T18:10:28;99385.88;;;13.40;64.25
47897;BME280;39629;51.400;5.494;2024-03-29T18:15:30;99370.78;;;13.32;64.87
47897;BME280;39629;51.400;5.494;2024-03-29T18:20:34;99388.00;;;13.20;65.89
47897;BME280;39629;51.400;5.494;2024-03-29T18:25:36;99397.63;;;12.88;68.30
47897;BME280;39629;51.400;5.494;2024-03-29T18:30:38;99401.69;;;12.75;69.90
47897;BME280;39629;51.400;5.494;2024-03-29T18:35:41;99401.31;;;12.76;70.89
47897;BME280;39629;51.400;5.494;2024-03-29T18:40:44;99404.38;;;12.75;70.73
47897;BME280;39629;51.400;5.494;2024-03-29T18:45:46;99404.88;;;12.84;68.13
47897;BME280;39629;51.400;5.494;2024-03-29T18:50:55;99414.13;;;12.83;68.10
47897;BME280;39629;51.400;5.494;2024-03-29T18:55:59;99413.34;;;12.82;68.41
47897;BME280;39629;51.400;5.494;2024-03-29T19:01:01;99414.94;;;12.87;67.75
47897;BME280;39629;51.400;5.494;2024-03-29T19:06:05;99415.75;;;12.91;69.45
47897;BME280;39629;51.400;5.494;2024-03-29T19:11:06;99409.41;;;13.06;70.02
47897;BME280;39629;51.400;5.494;2024-03-29T19:16:08;99406.91;;;12.90;71.12
47897;BME280;39629;51.400;5.494;2024-03-29T19:21:11;99422.78;;;12.99;71.18
47897;BME280;39629;51.400;5.494;2024-03-29T19:26:13;99441.66;;;12.99;73.46
47897;BME280;39629;51.400;5.494;2024-03-29T19:31:15;99451.56;;;12.91;72.58
47897;BME280;39629;51.400;5.494;2024-03-29T19:36:18;99457.31;;;12.90;72.88
47897;BME280;39629;51.400;5.494;2024-03-29T19:41:20;99462.63;;;12.83;73.47
47897;BME280;39629;51.400;5.494;2024-03-29T19:46:22;99469.47;;;12.77;73.93
47897;BME280;39629;51.400;5.494;2024-03-29T19:51:26;99487.06;;;12.71;74.06
47897;BME280;39629;51.400;5.494;2024-03-29T19:56:27;99480.28;;;12.80;72.14
47897;BME280;39629;51.400;5.494;2024-03-29T20:01:29;99479.78;;;12.71;72.73
47897;BME280;39629;51.400;5.494;2024-03-29T20:06:33;99477.03;;;12.68;73.69
47897;BME280;39629;51.400;5.494;2024-03-29T20:11:35;99475.28;;;12.56;73.89
47897;BME280;39629;51.400;5.494;2024-03-29T20:16:37;99470.97;;;12.51;73.65
47897;BME280;39629;51.400;5.494;2024-03-29T20:21:40;99488.91;;;12.40;74.96
47897;BME280;39629;51.400;5.494;2024-03-29T20:26:42;99493.00;;;12.57;74.27
47897;BME280;39629;51.400;5.494;2024-03-29T20:31:44;99482.63;;;12.59;74.34
47897;BME280;39629;51.400;5.494;2024-03-29T20:36:49;99491.28;;;12.45;75.46
47897;BME280;39629;51.400;5.494;2024-03-29T20:41:50;99506.34;;;12.50;75.11
47897;BME280;39629;51.400;5.494;2024-03-29T20:46:54;99525.03;;;12.39;75.40
47897;BME280;39629;51.400;5.494;2024-03-29T20:51:57;99533.84;;;12.36;75.99
47897;BME280;39629;51.400;5.494;2024-03-29T20:56:59;99535.38;;;12.37;76.61
47897;BME280;39629;51.400;5.494;2024-03-29T21:02:00;99541.91;;;12.36;75.57
47897;BME280;39629;51.400;5.494;2024-03-29T21:07:21;99552.19;;;12.30;76.68
47897;BME280;39629;51.400;5.494;2024-03-29T21:12:23;99564.47;;;12.28;76.01
47897;BME280;39629;51.400;5.494;2024-03-29T21:17:25;99552.00;;;12.20;76.92
47897;BME280;39629;51.400;5.494;2024-03-29T21:22:28;99567.59;;;12.11;77.23
47897;BME280;39629;51.400;5.494;2024-03-29T21:27:30;99575.25;;;12.09;76.92
47897;BME280;39629;51.400;5.494;2024-03-29T21:32:32;99585.31;;;11.92;77.85
47897;BME280;39629;51.400;5.494;2024-03-29T21:37:35;99590.97;;;11.87;78.54
47897;BME280;39629;51.400;5.494;2024-03-29T21:42:37;99601.38;;;11.89;77.74
47897;BME280;39629;51.400;5.494;2024-03-29T21:47:39;99598.97;;;11.84;76.67
47897;BME280;39629;51.400;5.494;2024-03-29T21:52:42;99602.50;;;11.68;78.80
47897;BME280;39629;51.400;5.494;2024-03-29T21:57:44;99614.03;;;11.69;78.11
47897;BME280;39629;51.400;5.494;2024-03-29T22:02:47;99605.75;;;11.58;77.71
47897;BME280;39629;51.400;5.494;2024-03-29T22:07:50;99607.28;;;11.59;76.96
47897;BME280;39629;51.400;5.494;2024-03-29T22:12:52;99621.72;;;11.51;78.08
47897;BME280;39629;51.400;5.494;2024-03-29T22:17:54;99632.41;;;11.48;77.65
47897;BME280;39629;51.400;5.494;2024-03-29T22:22:57;99629.22;;;11.42;78.75
47897;BME280;39629;51.400;5.494;2024-03-29T22:27:59;99648.22;;;11.33;78.89
47897;BME280;39629;51.400;5.494;2024-03-29T22:33:00;99649.53;;;11.24;80.27
47897;BME280;39629;51.400;5.494;2024-03-29T22:38:04;99649.81;;;11.19;81.33
47897;BME280;39629;51.400;5.494;2024-03-29T22:43:05;99633.16;;;11.13;80.61
47897;BME280;39629;51.400;5.494;2024-03-29T22:48:08;99638.28;;;11.02;81.76
47897;BME280;39629;51.400;5.494;2024-03-29T22:53:12;99640.88;;;10.99;82.84
47897;BME280;39629;51.400;5.494;2024-03-29T22:58:14;99633.53;;;10.96;82.30
47897;BME280;39629;51.400;5.494;2024-03-29T23:03:16;99629.69;;;10.81;83.35
47897;BME280;39629;51.400;5.494;2024-03-29T23:08:19;99641.38;;;10.73;82.89
47897;BME280;39629;51.400;5.494;2024-03-29T23:13:21;99637.63;;;10.62;84.35
47897;BME280;39629;51.400;5.494;2024-03-29T23:18:23;99640.03;;;10.51;84.61
47897;BME280;39629;51.400;5.494;2024-03-29T23:23:26;99633.09;;;10.50;84.19
47897;BME280;39629;51.400;5.494;2024-03-29T23:28:27;99632.47;;;10.41;84.58
47897;BME280;39629;51.400;5.494;2024-03-29T23:33:29;99631.78;;;10.44;84.56
47897;BME280;39629;51.400;5.494;2024-03-29T23:38:33;99627.53;;;10.43;84.30
47897;BME280;39629;51.400;5.494;2024-03-29T23:43:36;99621.13;;;10.32;84.73
47897;BME280;39629;51.400;5.494;2024-03-29T23:48:38;99618.34;;;10.28;86.00
47897;BME280;39629;51.400;5.494;2024-03-29T23:53:41;99606.31;;;10.38;84.01
47897;BME280;39629;51.400;5.494;2024-03-29T23:58:43;99606.91;;;10.31;85.22
